Time;durP1;ratioP1;P1;durP2;ratioP2;P2;SDS_P1;SDS_P2;PMS_P1;PMS_P2;Temp;Humidity;BMP_temperature;BMP_pressure;BME280_temperature;BME280_humidity;BME280_pressure;Samples;Min_cycle;Max_cycle;Signal;HPM_P1;HPM_P2
2022/10/09 00:01:18;;;;;;;9.10;8.80;;;7.70;99.90;;;;;;5120382;28;20319;-79
2022/10/09 00:03:52;;;;;;;8.77;8.57;;;7.70;99.90;;;;;;5119484;28;20231;-80
2022/10/09 00:06:22;;;;;;;9.10;8.80;;;7.70;99.90;;;;;;5120168;28;20229;-79
2022/10/09 00:08:50;;;;;;;9.27;8.97;;;7.60;99.90;;;;;;5120340;27;20241;-80
2022/10/09 00:11:21;;;;;;;9.40;9.10;;;7.60;99.90;;;;;;5119744;28;20237;-80
2022/10/09 00:13:53;;;;;;;9.00;8.70;;;7.60;99.90;;;;;;5115731;28;20322;-80
2022/10/09 00:16:23;;;;;;;9.07;8.77;;;7.60;99.90;;;;;;5107117;28;20233;-80
2022/10/09 00:18:54;;;;;;;9.20;8.90;;;7.60;99.90;;;;;;5099121;28;20296;-79
2022/10/09 00:21:27;;;;;;;9.00;8.70;;;7.50;99.90;;;;;;5100474;28;20251;-81
2022/10/09 00:23:58;;;;;;;8.77;8.53;;;7.50;99.90;;;;;;5099357;28;20268;-79
2022/10/09 00:26:32;;;;;;;9.17;8.87;;;7.50;99.90;;;;;;5098767;28;20241;-80
2022/10/09 00:29:00;;;;;;;9.10;8.80;;;7.40;99.90;;;;;;5098701;28;20267;-80
2022/10/09 00:31:28;;;;;;;8.70;8.50;;;7.40;99.90;;;;;;5099577;28;20225;-79
2022/10/09 00:33:58;;;;;;;9.10;8.80;;;7.40;99.90;;;;;;5099897;28;20229;-80
2022/10/09 00:36:27;;;;;;;8.90;8.60;;;7.30;99.90;;;;;;5099470;28;20229;-79
2022/10/09 00:38:55;;;;;;;9.30;9.00;;;7.30;99.90;;;;;;5100770;28;20241;-79
2022/10/09 00:41:27;;;;;;;9.00;8.70;;;7.30;99.90;;;;;;5102691;28;20322;-79
2022/10/09 00:43:59;;;;;;;9.10;8.80;;;7.30;99.90;;;;;;5104127;28;20251;-79
2022/10/09 00:46:34;;;;;;;8.80;8.60;;;7.30;99.90;;;;;;5104994;28;20264;-80
2022/10/09 00:49:19;;;;;;;9.10;8.80;;;7.30;99.90;;;;;;5104848;28;20296;-80
2022/10/09 00:51:48;;;;;;;8.83;8.57;;;7.20;99.90;;;;;;5102779;28;20320;-80
2022/10/09 00:54:22;;;;;;;8.93;8.63;;;7.20;99.90;;;;;;5101577;28;20240;-78
2022/10/09 00:56:51;;;;;;;9.07;8.77;;;7.20;99.90;;;;;;5101547;28;20221;-79
2022/10/09 00:59:19;;;;;;;9.00;8.70;;;7.20;99.90;;;;;;5101117;28;20317;-79
2022/10/09 01:01:46;;;;;;;9.20;8.90;;;7.10;99.90;;;;;;5101267;28;20240;-79
2022/10/09 01:04:15;;;;;;;9.10;8.80;;;7.10;99.90;;;;;;5102420;28;20226;-79
2022/10/09 01:07:05;;;;;;;9.27;8.97;;;7.10;99.90;;;;;;5106145;28;20229;-79
2022/10/09 01:09:44;;;;;;;9.10;8.80;;;7.10;99.90;;;;;;5102565;28;20237;-80
2022/10/09 01:12:20;;;;;;;9.30;9.00;;;7.00;99.90;;;;;;5103039;28;20698;-80
2022/10/09 01:14:59;;;;;;;9.00;8.70;;;7.00;99.90;;;;;;5102661;28;20244;-79
2022/10/09 01:17:38;;;;;;;9.20;8.90;;;6.90;99.90;;;;;;5101718;28;20209;-78
2022/10/09 01:20:32;;;;;;;9.20;8.90;;;6.90;99.90;;;;;;5100976;28;20244;-78
2022/10/09 01:23:46;;;;;;;9.00;8.70;;;6.90;99.90;;;;;;5095944;28;20291;-78
2022/10/09 01:26:37;;;;;;;9.13;8.83;;;6.80;99.90;;;;;;5100343;28;20220;-78
2022/10/09 01:29:09;;;;;;;9.27;8.97;;;6.80;99.90;;;;;;5100894;28;20236;-78
2022/10/09 01:31:44;;;;;;;9.30;9.00;;;6.70;99.90;;;;;;5100550;28;20300;-78
2022/10/09 01:34:15;;;;;;;9.27;8.97;;;6.70;99.90;;;;;;5100971;28;20290;-78
2022/10/09 01:36:44;;;;;;;9.20;8.90;;;6.70;99.90;;;;;;5100498;28;20305;-78
2022/10/09 01:39:18;;;;;;;9.30;9.00;;;6.60;99.90;;;;;;5099633;28;20233;-79
2022/10/09 01:41:46;;;;;;;9.40;9.10;;;6.60;99.90;;;;;;5100713;28;20217;-79
2022/10/09 01:44:22;;;;;;;9.10;8.80;;;6.60;99.90;;;;;;5100856;28;20257;-78
2022/10/09 01:46:50;;;;;;;9.50;9.20;;;6.60;99.90;;;;;;5100390;28;20720;-78
2022/10/09 01:49:44;;;;;;;9.30;9.00;;;6.50;99.90;;;;;;5100914;28;20230;-78
2022/10/09 01:52:25;;;;;;;9.40;9.10;;;6.50;99.90;;;;;;5099072;28;20240;-78
2022/10/09 01:55:09;;;;;;;9.30;9.00;;;6.50;99.90;;;;;;5100272;28;20241;-78
2022/10/09 01:57:44;;;;;;;9.50;9.20;;;6.50;99.90;;;;;;5100574;28;20246;-78
2022/10/09 02:00:14;;;;;;;9.30;9.00;;;6.40;99.90;;;;;;5100273;28;20252;-78
2022/10/09 02:02:45;;;;;;;9.43;9.13;;;6.40;99.90;;;;;;5142451;22;20236;-82
2022/10/09 02:05:22;;;;;;;9.53;9.23;;;6.40;99.90;;;;;;5120731;28;20254;-82
2022/10/09 02:07:50;;;;;;;9.43;9.13;;;6.40;99.90;;;;;;5103279;28;20287;-82
2022/10/09 02:10:19;;;;;;;9.30;9.00;;;6.40;99.90;;;;;;5111776;28;20226;-82
2022/10/09 02:12:57;;;;;;;9.40;9.10;;;6.40;99.90;;;;;;5104274;28;20240;-82
2022/10/09 02:15:48;;;;;;;9.70;9.40;;;6.30;99.90;;;;;;5087185;28;20229;-83
2022/10/09 02:18:23;;;;;;;9.70;9.40;;;6.30;99.90;;;;;;5098178;28;20237;-82
2022/10/09 02:21:02;;;;;;;9.80;9.50;;;6.20;99.90;;;;;;5104148;28;20225;-83
2022/10/09 02:23:30;;;;;;;9.80;9.50;;;6.20;99.90;;;;;;5105497;28;20221;-83
2022/10/09 02:26:00;;;;;;;9.57;9.27;;;6.20;99.90;;;;;;5103875;28;20299;-83
2022/10/09 02:28:30;;;;;;;9.60;9.30;;;6.20;99.90;;;;;;5104013;28;20233;-82
2022/10/09 02:33:57;;;;;;;9.90;9.60;;;6.10;99.90;;;;;;5103427;28;20221;-83
2022/10/09 02:36:26;;;;;;;9.80;9.50;;;6.10;99.90;;;;;;5110027;28;20273;-81
2022/10/09 02:38:55;;;;;;;9.60;9.30;;;6.00;99.90;;;;;;5118293;28;20277;-82
2022/10/09 02:41:24;;;;;;;9.60;9.30;;;6.00;99.90;;;;;;5110183;28;20229;-82
2022/10/09 02:43:52;;;;;;;9.83;9.53;;;5.90;99.90;;;;;;5103699;28;20241;-82
2022/10/09 02:46:30;;;;;;;9.60;9.30;;;5.90;99.90;;;;;;5110298;28;20264;-83
2022/10/09 02:48:59;;;;;;;9.67;9.37;;;5.80;99.90;;;;;;5110010;28;20225;-82
2022/10/09 02:51:30;;;;;;;9.70;9.40;;;5.70;99.90;;;;;;5107963;28;20256;-83
2022/10/09 02:53:58;;;;;;;9.77;9.47;;;5.70;99.90;;;;;;5109968;28;20289;-83
2022/10/09 02:56:28;;;;;;;9.80;9.50;;;5.70;99.90;;;;;;5104195;28;20232;-83
2022/10/09 02:58:58;;;;;;;9.90;9.60;;;5.70;99.90;;;;;;5103955;28;20320;-83
2022/10/09 03:01:36;;;;;;;9.77;9.47;;;5.70;99.90;;;;;;5101125;28;20241;-83
2022/10/09 03:04:05;;;;;;;9.90;9.60;;;5.60;99.90;;;;;;5103452;28;20225;-82
2022/10/09 03:06:35;;;;;;;9.90;9.60;;;5.50;99.90;;;;;;5102286;28;20256;-82
2022/10/09 03:09:04;;;;;;;9.57;9.27;;;5.50;99.90;;;;;;5102287;28;20303;-83
2022/10/09 03:11:33;;;;;;;9.87;9.57;;;5.50;99.90;;;;;;5102140;28;20283;-82
2022/10/09 03:14:03;;;;;;;9.70;9.40;;;5.50;99.90;;;;;;5102217;28;20332;-83
2022/10/09 03:16:35;;;;;;;9.90;9.60;;;5.50;99.90;;;;;;5105481;28;20302;-82
2022/10/09 03:21:49;;;;;;;10.00;9.70;;;5.50;99.90;;;;;;5109567;28;20233;-82
2022/10/09 03:24:19;;;;;;;9.77;9.47;;;5.50;99.90;;;;;;5118088;28;20218;-81
2022/10/09 03:26:48;;;;;;;9.70;9.40;;;5.40;99.90;;;;;;5117799;28;20288;-82
2022/10/09 03:29:17;;;;;;;9.80;9.50;;;5.40;99.90;;;;;;5110901;28;20221;-83
2022/10/09 03:31:56;;;;;;;9.90;9.60;;;5.40;99.90;;;;;;5102162;28;20213;-82
2022/10/09 03:34:25;;;;;;;10.00;9.70;;;5.30;99.90;;;;;;5101588;28;20229;-82
2022/10/09 03:36:54;;;;;;;10.00;9.70;;;5.30;99.90;;;;;;5101673;28;20225;-82
2022/10/09 03:39:24;;;;;;;9.80;9.50;;;5.20;99.90;;;;;;5101815;28;20233;-82
2022/10/09 03:41:53;;;;;;;9.80;9.50;;;5.20;99.90;;;;;;5103581;28;20328;-82
2022/10/09 03:44:23;;;;;;;9.90;9.60;;;5.20;99.90;;;;;;5101466;28;20309;-83
2022/10/09 03:46:55;;;;;;;9.83;9.53;;;5.20;99.90;;;;;;5101633;28;20226;-82
2022/10/09 03:49:23;;;;;;;10.00;9.70;;;5.10;99.90;;;;;;5111340;28;20245;-82
2022/10/09 03:51:51;;;;;;;10.00;9.70;;;5.00;99.90;;;;;;5106628;28;20233;-82
2022/10/09 03:54:23;;;;;;;10.03;9.73;;;5.00;99.90;;;;;;5101953;28;20239;-82
2022/10/09 03:56:52;;;;;;;9.93;9.63;;;5.00;99.90;;;;;;5103873;28;20257;-82
2022/10/09 03:59:21;;;;;;;9.87;9.57;;;4.90;99.90;;;;;;5104033;28;20322;-83
2022/10/09 04:01:51;;;;;;;9.90;9.60;;;4.90;99.90;;;;;;5101643;28;20234;-83
2022/10/09 04:04:29;;;;;;;10.00;9.70;;;4.90;99.90;;;;;;5102694;28;20312;-82
2022/10/09 04:06:58;;;;;;;10.07;9.77;;;4.80;99.90;;;;;;5102351;28;20237;-82
2022/10/09 04:09:28;;;;;;;10.00;9.70;;;4.80;99.90;;;;;;5101573;28;20301;-82
2022/10/09 04:11:57;;;;;;;10.07;9.77;;;4.80;99.90;;;;;;5102171;28;20269;-84
2022/10/09 04:14:26;;;;;;;10.30;10.00;;;4.80;99.90;;;;;;5101304;28;20679;-83
2022/10/09 04:16:56;;;;;;;10.27;9.97;;;4.80;99.90;;;;;;5101320;28;20766;-83
2022/10/09 04:19:28;;;;;;;10.40;10.10;;;4.70;99.90;;;;;;5101891;28;20241;-83
2022/10/09 04:21:55;;;;;;;10.00;9.70;;;4.70;99.90;;;;;;5105900;28;20221;-82
2022/10/09 04:24:25;;;;;;;10.13;9.83;;;4.70;99.90;;;;;;5108830;28;20229;-81
2022/10/09 04:26:55;;;;;;;10.20;9.90;;;4.70;99.90;;;;;;5102346;28;20232;-82
2022/10/09 04:29:23;;;;;;;10.20;9.90;;;4.60;99.90;;;;;;5101426;28;20239;-83
2022/10/09 04:31:52;;;;;;;10.10;9.80;;;4.60;99.90;;;;;;5101885;28;20303;-83
2022/10/09 04:34:22;;;;;;;10.13;9.83;;;4.60;99.90;;;;;;5101317;28;20233;-81
2022/10/09 04:37:01;;;;;;;10.30;10.00;;;4.60;99.90;;;;;;5100561;28;20289;-82
2022/10/09 04:39:30;;;;;;;10.13;9.83;;;4.50;99.90;;;;;;5100332;28;20230;-83
2022/10/09 04:42:00;;;;;;;10.20;9.90;;;4.50;99.90;;;;;;5100370;28;20234;-82
2022/10/09 04:44:29;;;;;;;10.20;9.90;;;4.50;99.90;;;;;;5099813;28;20320;-85
2022/10/09 04:46:58;;;;;;;10.07;9.77;;;4.40;99.90;;;;;;5105605;28;20229;-82
2022/10/09 04:49:27;;;;;;;10.30;10.00;;;4.40;99.90;;;;;;5101602;28;20221;-82
2022/10/09 04:52:07;;;;;;;9.90;9.60;;;4.30;99.90;;;;;;5101047;28;20262;-82
2022/10/09 04:54:35;;;;;;;10.10;9.80;;;4.30;99.90;;;;;;5101650;28;20228;-82
2022/10/09 04:57:04;;;;;;;10.27;9.97;;;4.30;99.90;;;;;;5101564;28;20229;-82
2022/10/09 04:59:34;;;;;;;10.10;9.80;;;4.30;99.90;;;;;;5101555;28;20248;-82
2022/10/09 05:02:03;;;;;;;10.03;9.73;;;4.20;99.90;;;;;;5100672;28;20221;-83
2022/10/09 05:04:33;;;;;;;9.83;9.53;;;4.20;99.90;;;;;;5101892;28;20353;-82
2022/10/09 05:07:12;;;;;;;9.93;9.63;;;4.20;99.90;;;;;;5103103;28;20285;-82
2022/10/09 05:09:41;;;;;;;10.20;9.90;;;4.20;99.90;;;;;;5101238;28;20304;-82
2022/10/09 05:12:10;;;;;;;10.40;10.10;;;4.10;99.90;;;;;;5100429;28;20218;-82
2022/10/09 05:14:39;;;;;;;10.60;10.30;;;4.10;99.90;;;;;;5099885;28;20244;-82
2022/10/09 05:17:09;;;;;;;10.30;10.00;;;4.10;99.90;;;;;;5100377;28;20240;-82
2022/10/09 05:19:39;;;;;;;10.47;10.17;;;4.10;99.90;;;;;;5100494;28;20329;-82
2022/10/09 05:22:17;;;;;;;10.60;10.30;;;4.10;99.90;;;;;;5100779;28;20285;-82
2022/10/09 05:24:46;;;;;;;10.40;10.10;;;4.00;99.90;;;;;;5101227;28;20225;-82
2022/10/09 05:27:15;;;;;;;10.37;10.07;;;4.00;99.90;;;;;;5100849;28;20283;-82
2022/10/09 05:29:45;;;;;;;10.37;10.07;;;4.00;99.90;;;;;;5103166;28;20314;-82
2022/10/09 05:32:15;;;;;;;10.40;10.10;;;4.00;99.90;;;;;;5105216;28;20237;-82
2022/10/09 05:34:44;;;;;;;10.30;10.00;;;4.00;99.90;;;;;;5103617;28;20282;-82
2022/10/09 05:37:22;;;;;;;10.10;9.80;;;4.00;99.90;;;;;;5103449;28;20268;-82
2022/10/09 05:39:51;;;;;;;10.30;10.00;;;4.00;99.90;;;;;;5103476;28;20306;-82
2022/10/09 05:42:22;;;;;;;10.30;10.00;;;4.00;99.90;;;;;;5103025;28;20229;-83
2022/10/09 05:44:50;;;;;;;10.00;9.70;;;4.00;99.90;;;;;;5103518;28;20229;-82
2022/10/09 05:47:21;;;;;;;10.13;9.83;;;4.00;99.90;;;;;;5103127;28;20265;-82
2022/10/09 05:49:50;;;;;;;10.40;10.10;;;4.00;99.90;;;;;;5102822;28;20225;-83
2022/10/09 05:52:28;;;;;;;10.30;10.00;;;4.00;99.90;;;;;;5102954;28;20926;-83
2022/10/09 05:54:59;;;;;;;9.93;9.63;;;4.00;99.90;;;;;;5103200;28;20291;-82
2022/10/09 05:57:28;;;;;;;10.20;9.90;;;4.00;99.90;;;;;;5104081;28;20232;-82
2022/10/09 05:59:58;;;;;;;10.50;10.20;;;3.90;99.90;;;;;;5102740;28;20241;-82
2022/10/09 06:02:28;;;;;;;10.20;9.90;;;3.90;99.90;;;;;;5103502;28;20237;-82
2022/10/09 06:04:57;;;;;;;10.00;9.70;;;3.90;99.90;;;;;;5103672;28;20253;-82
2022/10/09 06:10:13;;;;;;;10.03;9.73;;;3.90;99.90;;;;;;5102118;28;20240;-82
2022/10/09 06:12:42;;;;;;;10.23;9.93;;;3.90;99.90;;;;;;5103416;28;20226;-82
2022/10/09 06:15:13;;;;;;;10.30;10.00;;;3.90;99.90;;;;;;5102169;28;20283;-82
2022/10/09 06:17:42;;;;;;;10.67;10.37;;;4.00;99.90;;;;;;5102863;28;20228;-82
2022/10/09 06:20:10;;;;;;;10.40;10.10;;;4.00;99.90;;;;;;5102099;28;20344;-82
2022/10/09 06:22:43;;;;;;;10.23;9.93;;;4.10;99.90;;;;;;5104045;28;20239;-82
2022/10/09 06:25:10;;;;;;;10.53;10.23;;;4.10;99.90;;;;;;5106678;28;20244;-82
2022/10/09 06:27:39;;;;;;;10.30;10.00;;;4.20;99.90;;;;;;5116236;28;20217;-81
2022/10/09 06:30:09;;;;;;;10.10;9.80;;;4.30;99.90;;;;;;5113603;28;20230;-82
2022/10/09 06:32:38;;;;;;;10.23;9.93;;;4.40;99.90;;;;;;5102217;28;20228;-83
2022/10/09 06:35:07;;;;;;;10.03;9.73;;;4.40;99.90;;;;;;5102527;28;20229;-83
2022/10/09 06:37:36;;;;;;;10.00;9.70;;;4.50;99.90;;;;;;5102682;28;20312;-82
2022/10/09 06:40:16;;;;;;;10.00;9.70;;;4.50;99.90;;;;;;5102077;28;20253;-83
2022/10/09 06:42:44;;;;;;;10.20;9.90;;;4.50;99.90;;;;;;5102552;28;20316;-82
2022/10/09 06:45:15;;;;;;;10.20;9.90;;;4.60;99.90;;;;;;5101338;28;20253;-82
2022/10/09 06:47:44;;;;;;;10.17;9.87;;;4.60;99.90;;;;;;5102066;28;20237;-82
2022/10/09 06:50:12;;;;;;;10.00;9.70;;;4.70;99.90;;;;;;5101983;28;20233;-82
2022/10/09 06:52:43;;;;;;;10.07;9.77;;;4.70;99.90;;;;;;5102522;28;20432;-82
2022/10/09 06:55:21;;;;;;;10.20;9.90;;;4.80;99.90;;;;;;5102348;28;20221;-82
2022/10/09 06:57:50;;;;;;;10.00;9.70;;;4.90;99.90;;;;;;5102127;28;20303;-82
2022/10/09 07:00:19;;;;;;;10.30;10.00;;;5.00;99.90;;;;;;5101446;28;20229;-82
2022/10/09 07:02:49;;;;;;;10.10;9.80;;;5.10;99.90;;;;;;5101496;28;20604;-83
2022/10/09 07:05:18;;;;;;;9.90;9.60;;;5.10;99.90;;;;;;5101706;28;20252;-82
2022/10/09 07:07:48;;;;;;;9.90;9.60;;;5.30;99.90;;;;;;5102503;28;20233;-82
2022/10/09 07:10:20;;;;;;;10.00;9.70;;;5.30;99.90;;;;;;5104186;28;20290;-82
2022/10/09 07:12:48;;;;;;;10.03;9.73;;;5.40;99.90;;;;;;5104029;28;20225;-83
2022/10/09 07:16:37;;;;;;;10.60;10.30;;;5.50;99.90;;;;;;5084622;28;20400;-83
2022/10/09 07:19:43;;;;;;;;;;;;;;;;;;;;;
2022/10/09 07:22:29;;;;;;;10.20;9.90;;;6.00;99.90;;;;;;5090633;28;20237;-85
2022/10/09 07:25:25;;;;;;;10.30;10.00;;;6.20;99.90;;;;;;5090780;28;20225;-86
2022/10/09 07:32:28;;;;;;;10.00;9.70;;;6.40;99.90;;;;;;5125018;22;20244;-83
2022/10/09 07:35:22;;;;;;;10.10;9.80;;;6.50;99.90;;;;;;5125299;28;20229;-84
2022/10/09 07:38:09;;;;;;;10.17;9.87;;;6.60;99.90;;;;;;5123206;28;20240;-83
2022/10/09 07:43:53;;;;;;;10.00;9.70;;;6.80;99.90;;;;;;5062082;28;20220;-84
2022/10/09 07:47:06;;;;;;;10.23;9.93;;;6.90;99.90;;;;;;5102460;28;20232;-83
2022/10/09 07:49:53;;;;;;;10.20;9.90;;;7.00;99.90;;;;;;5102663;28;20220;-83
2022/10/09 07:56:21;;;;;;;9.97;9.67;;;7.30;99.90;;;;;;5109288;28;20256;-84
2022/10/09 08:02:38;;;;;;;10.20;9.90;;;7.70;99.90;;;;;;5071206;22;20228;-83
2022/10/09 08:05:10;;;;;;;10.37;10.07;;;7.90;99.90;;;;;;5129782;27;20228;-83
2022/10/09 08:07:37;;;;;;;10.20;9.90;;;7.90;99.90;;;;;;5114922;27;20234;-82
2022/10/09 08:10:06;;;;;;;10.47;10.17;;;8.10;99.90;;;;;;5129038;27;20237;-80
2022/10/09 08:12:35;;;;;;;10.13;9.83;;;8.20;99.90;;;;;;5107463;28;20229;-80
2022/10/09 08:15:04;;;;;;;10.30;10.00;;;8.30;99.90;;;;;;5085604;28;20236;-81
2022/10/09 08:17:34;;;;;;;10.47;10.17;;;8.50;99.90;;;;;;5125950;28;20234;-79
2022/10/09 08:20:02;;;;;;;10.20;9.90;;;8.70;99.90;;;;;;5124923;28;20228;-81
2022/10/09 08:22:35;;;;;;;10.37;10.07;;;8.80;99.90;;;;;;5123668;28;20279;-81
2022/10/09 08:25:05;;;;;;;10.60;10.30;;;9.00;99.90;;;;;;5119101;28;20243;-80
2022/10/09 08:27:32;;;;;;;9.97;9.67;;;9.20;99.90;;;;;;5122565;28;20243;-80
2022/10/09 08:30:01;;;;;;;10.00;9.70;;;9.40;99.90;;;;;;5135218;28;20289;-81
2022/10/09 08:32:30;;;;;;;9.77;9.47;;;9.60;99.90;;;;;;5133830;28;20228;-80
2022/10/09 08:34:59;;;;;;;9.57;9.27;;;9.90;99.90;;;;;;5121337;27;20244;-80
2022/10/09 08:37:29;;;;;;;9.47;9.17;;;10.20;99.90;;;;;;5118533;27;20210;-80
2022/10/09 08:40:08;;;;;;;9.23;8.93;;;10.50;99.90;;;;;;5118118;28;20236;-81
2022/10/09 08:42:43;;;;;;;9.00;8.70;;;10.80;99.90;;;;;;5126012;28;20216;-80
2022/10/09 08:45:17;;;;;;;9.20;8.90;;;11.20;99.90;;;;;;5128456;27;20213;-81
2022/10/09 08:47:55;;;;;;;9.20;8.90;;;11.50;99.90;;;;;;5130235;27;20217;-81
2022/10/09 08:53:19;;;;;;;9.33;9.03;;;12.20;99.90;;;;;;5134863;27;20208;-81
2022/10/09 08:55:57;;;;;;;9.57;9.27;;;12.60;99.90;;;;;;5138734;27;20280;-81
2022/10/09 08:58:35;;;;;;;9.40;9.10;;;13.00;99.90;;;;;;5138708;27;20233;-82
2022/10/09 09:01:14;;;;;;;9.63;9.33;;;13.30;99.90;;;;;;5137570;27;20245;-80
2022/10/09 09:04:18;;;;;;;9.57;9.27;;;13.70;99.90;;;;;;5128058;28;20236;-80
2022/10/09 09:06:57;;;;;;;9.47;9.17;;;14.00;99.90;;;;;;5120592;27;20328;-81
2022/10/09 09:09:35;;;;;;;9.53;9.23;;;14.30;99.90;;;;;;5108158;27;20225;-81
2022/10/09 09:12:32;;;;;;;9.73;9.43;;;14.70;99.90;;;;;;5138019;27;20259;-82
2022/10/09 09:15:21;;;;;;;9.70;9.40;;;14.80;99.90;;;;;;5137444;28;20285;-81
2022/10/09 09:17:58;;;;;;;9.60;9.30;;;15.00;99.90;;;;;;5127907;28;20225;-80
2022/10/09 09:20:33;;;;;;;10.20;9.90;;;15.20;99.90;;;;;;5129289;28;20243;-81
2022/10/09 09:23:03;;;;;;;9.80;9.50;;;15.40;99.90;;;;;;5127390;28;20248;-81
2022/10/09 09:25:37;;;;;;;10.00;9.70;;;15.40;99.90;;;;;;5128085;28;20216;-80
2022/10/09 09:28:25;;;;;;;9.57;9.27;;;15.30;99.90;;;;;;5128491;28;20229;-78
2022/10/09 09:30:57;;;;;;;9.60;9.30;;;15.40;99.90;;;;;;5127335;28;20310;-80
2022/10/09 09:33:38;;;;;;;9.95;9.65;;;15.60;99.90;;;;;;5124650;28;20271;-82
2022/10/09 09:36:15;;;;;;;10.00;9.70;;;15.80;99.90;;;;;;5117219;28;20275;-82
2022/10/09 09:38:44;;;;;;;9.82;9.52;;;16.20;99.90;;;;;;5112204;28;20237;-82
2022/10/09 09:41:13;;;;;;;9.80;9.50;;;16.60;99.90;;;;;;5103400;28;20237;-81
2022/10/09 09:44:11;;;;;;;10.05;9.75;;;16.90;99.90;;;;;;5103922;28;20240;-81
2022/10/09 09:46:40;;;;;;;10.40;10.10;;;17.10;99.90;;;;;;5102808;28;20237;-83
2022/10/09 09:49:17;;;;;;;10.07;9.77;;;17.10;99.90;;;;;;5102568;28;20229;-81
2022/10/09 09:51:46;;;;;;;10.40;10.10;;;17.40;99.90;;;;;;5101772;28;20343;-82
2022/10/09 09:54:20;;;;;;;10.55;10.25;;;17.60;99.90;;;;;;5101906;28;20328;-82
2022/10/09 09:56:49;;;;;;;10.50;10.20;;;17.60;99.90;;;;;;5104148;28;20236;-81
2022/10/09 09:59:42;;;;;;;10.57;10.27;;;17.40;99.90;;;;;;5109893;28;20251;-81
2022/10/09 10:02:14;;;;;;;10.30;10.00;;;17.00;99.90;;;;;;5120797;28;20243;-83
2022/10/09 10:04:51;;;;;;;10.15;9.85;;;16.80;99.90;;;;;;5123060;28;20305;-81
2022/10/09 10:07:40;;;;;;;10.63;10.32;;;16.80;99.90;;;;;;5123493;28;20224;-81
2022/10/09 10:10:15;;;;;;;10.60;10.30;;;16.80;99.90;;;;;;5123579;28;20292;-81
2022/10/09 10:12:45;;;;;;;10.50;10.20;;;16.90;99.90;;;;;;5123186;28;20240;-81
2022/10/09 10:15:26;;;;;;;10.32;10.02;;;17.30;99.90;;;;;;5121647;27;20286;-81
2022/10/09 10:18:01;;;;;;;10.57;10.27;;;17.70;99.90;;;;;;5110142;28;20285;-81
2022/10/09 10:20:31;;;;;;;10.70;10.40;;;17.80;99.90;;;;;;5108852;28;20235;-81
2022/10/09 10:23:00;;;;;;;10.60;10.30;;;17.80;99.90;;;;;;5118287;28;20247;-81
2022/10/09 10:25:40;;;;;;;10.50;10.20;;;17.80;99.90;;;;;;5116466;28;20224;-81
2022/10/09 10:28:18;;;;;;;10.70;10.40;;;17.70;99.90;;;;;;5119911;28;20231;-81
2022/10/09 10:31:01;;;;;;;10.70;10.40;;;17.80;99.90;;;;;;5114493;27;20237;-82
2022/10/09 10:33:40;;;;;;;10.60;10.30;;;17.70;99.90;;;;;;5100681;28;20241;-81
2022/10/09 10:36:11;;;;;;;10.40;10.10;;;17.60;99.90;;;;;;5100215;28;20226;-81
2022/10/09 10:38:47;;;;;;;10.50;10.20;;;17.50;99.90;;;;;;5100943;28;20222;-81
2022/10/09 10:41:22;;;;;;;10.40;10.10;;;17.50;99.90;;;;;;5101243;28;20280;-80
2022/10/09 10:43:58;;;;;;;10.15;9.85;;;17.50;99.90;;;;;;5101295;28;20226;-82
2022/10/09 10:46:35;;;;;;;10.20;9.90;;;17.40;99.90;;;;;;5097816;28;20237;-82
2022/10/09 10:49:05;;;;;;;10.20;9.90;;;17.50;99.90;;;;;;5097297;28;20234;-83
2022/10/09 10:52:03;;;;;;;10.20;9.90;;;17.60;99.90;;;;;;5093529;28;20234;-83
2022/10/09 10:54:39;;;;;;;10.20;9.90;;;17.80;99.90;;;;;;5093169;28;20238;-83
2022/10/09 10:57:18;;;;;;;10.30;10.00;;;17.80;99.90;;;;;;5086388;28;20287;-82
2022/10/09 11:00:05;;;;;;;10.20;9.90;;;17.80;99.90;;;;;;5100839;28;20288;-82
2022/10/09 11:03:07;;;;;;;10.32;10.02;;;17.80;99.90;;;;;;5105610;28;20267;-82
2022/10/09 11:05:47;;;;;;;10.57;10.27;;;18.20;99.90;;;;;;5123196;28;20299;-82
2022/10/09 11:08:37;;;;;;;10.30;10.00;;;18.70;99.90;;;;;;5108757;28;20712;-83
2022/10/09 11:11:14;;;;;;;10.45;10.15;;;19.10;99.90;;;;;;5113019;28;20226;-82
2022/10/09 11:14:01;;;;;;;10.73;10.43;;;19.40;99.90;;;;;;5111078;28;20282;-82
2022/10/09 11:16:48;;;;;;;10.65;10.35;;;19.60;99.90;;;;;;5108107;28;20233;-81
2022/10/09 11:19:44;;;;;;;10.70;10.40;;;19.50;99.90;;;;;;5122801;28;20216;-82
2022/10/09 11:22:30;;;;;;;10.70;10.40;;;19.00;99.90;;;;;;5121372;28;20235;-82
2022/10/09 11:25:22;;;;;;;10.60;10.30;;;19.00;99.90;;;;;;5110759;28;20260;-83
2022/10/09 11:27:55;;;;;;;10.68;10.38;;;19.00;99.90;;;;;;5100767;28;20249;-82
2022/10/09 11:30:25;;;;;;;10.50;10.20;;;18.80;99.90;;;;;;5098282;28;20218;-82
2022/10/09 11:33:03;;;;;;;10.48;10.18;;;18.60;99.90;;;;;;5079666;28;20249;-81
2022/10/09 11:35:41;;;;;;;10.40;10.10;;;18.80;99.90;;;;;;5091993;28;20235;-81
2022/10/09 11:38:24;;;;;;;10.40;10.10;;;19.30;99.90;;;;;;5107892;28;20228;-80
2022/10/09 11:40:53;;;;;;;10.38;10.07;;;19.50;99.90;;;;;;5110284;28;20235;-79
2022/10/09 11:43:50;;;;;;;10.27;9.98;;;19.30;99.90;;;;;;5119720;28;20217;-80
2022/10/09 11:46:32;;;;;;;10.40;10.10;;;18.90;99.90;;;;;;5119077;28;20232;-80
2022/10/09 11:49:09;;;;;;;10.48;10.18;;;19.00;99.90;;;;;;5120559;28;20291;-80
2022/10/09 11:51:47;;;;;;;10.77;10.48;;;19.20;99.90;;;;;;5104399;28;20235;-80
2022/10/09 11:54:19;;;;;;;10.65;10.35;;;19.20;99.90;;;;;;5105591;28;20225;-81
2022/10/09 11:56:57;;;;;;;10.45;10.15;;;18.90;99.90;;;;;;5100437;28;20459;-80
2022/10/09 11:59:28;;;;;;;10.55;10.25;;;19.00;99.90;;;;;;5079089;28;20230;-81
2022/10/09 12:01:57;;;;;;;10.63;10.32;;;19.00;99.90;;;;;;5096479;28;20237;-82
2022/10/09 12:04:32;;;;;;;10.55;10.25;;;19.00;99.90;;;;;;5103315;28;20228;-81
2022/10/09 12:07:05;;;;;;;10.63;10.32;;;19.10;99.90;;;;;;5119038;28;20370;-81
2022/10/09 12:09:39;;;;;;;10.75;10.45;;;19.60;99.90;;;;;;5120174;28;20233;-80
2022/10/09 12:12:20;;;;;;;10.82;10.52;;;19.90;99.90;;;;;;5119354;28;20239;-81
2022/10/09 12:14:50;;;;;;;10.65;10.35;;;19.90;99.90;;;;;;5116959;28;20216;-81
2022/10/09 12:17:35;;;;;;;10.43;10.13;;;19.50;99.90;;;;;;5099841;28;20222;-81
2022/10/09 12:20:08;;;;;;;10.60;10.30;;;19.30;99.90;;;;;;5099172;28;20233;-81
2022/10/09 12:22:43;;;;;;;10.32;10.02;;;19.50;99.90;;;;;;5107391;28;20328;-80
2022/10/09 12:25:22;;;;;;;10.85;10.55;;;19.50;99.90;;;;;;5107260;28;20225;-80
2022/10/09 12:27:54;;;;;;;10.40;10.10;;;19.60;99.90;;;;;;5099100;28;20225;-81
2022/10/09 12:30:27;;;;;;;10.30;10.00;;;19.60;99.90;;;;;;5093019;28;20265;-79
2022/10/09 12:33:01;;;;;;;10.15;9.85;;;19.50;99.90;;;;;;5103690;28;20241;-81
2022/10/09 12:35:35;;;;;;;10.55;10.25;;;19.60;99.90;;;;;;5113499;28;20220;-81
2022/10/09 12:38:16;;;;;;;10.40;10.10;;;19.90;99.90;;;;;;5091101;28;20246;-80
2022/10/09 12:40:49;;;;;;;10.38;10.07;;;19.90;99.90;;;;;;5083082;28;20235;-81
2022/10/09 12:43:19;;;;;;;10.70;10.40;;;20.00;99.90;;;;;;5082202;28;20248;-80
2022/10/09 12:45:54;;;;;;;10.18;9.88;;;20.30;99.90;;;;;;5081470;28;20237;-82
2022/10/09 12:48:25;;;;;;;10.50;10.20;;;20.60;99.90;;;;;;5084023;28;20253;-83
2022/10/09 12:50:53;;;;;;;10.90;10.60;;;20.90;99.90;;;;;;5101231;28;20252;-85
2022/10/09 12:53:29;;;;;;;10.75;10.45;;;21.10;99.90;;;;;;5114621;28;20231;-83
2022/10/09 12:56:02;;;;;;;10.70;10.40;;;21.10;99.90;;;;;;5104634;28;20251;-82
2022/10/09 12:58:38;;;;;;;10.50;10.20;;;21.20;99.90;;;;;;5104785;28;20257;-82
2022/10/09 13:01:10;;;;;;;10.43;10.13;;;21.40;99.90;;;;;;5111302;28;20266;-81
2022/10/09 13:03:41;;;;;;;10.77;10.48;;;21.90;99.90;;;;;;5111322;28;20229;-82
2022/10/09 13:06:16;;;;;;;10.75;10.45;;;21.90;99.90;;;;;;5110972;28;20332;-82
2022/10/09 13:08:53;;;;;;;10.70;10.40;;;21.90;99.90;;;;;;5104307;28;20328;-82
2022/10/09 13:11:33;;;;;;;10.70;10.40;;;21.90;99.90;;;;;;5104401;28;20235;-80
2022/10/09 13:14:02;;;;;;;10.70;10.40;;;21.60;99.90;;;;;;5112024;28;20221;-82
2022/10/09 13:16:40;;;;;;;10.68;10.38;;;21.30;99.90;;;;;;5104111;28;20237;-82
2022/10/09 13:19:26;;;;;;;10.55;10.25;;;21.00;99.90;;;;;;5104979;28;20213;-82
2022/10/09 13:22:22;;;;;;;10.50;10.20;;;21.00;99.90;;;;;;5103114;28;20229;-83
2022/10/09 13:24:58;;;;;;;10.48;10.18;;;21.20;99.90;;;;;;5103177;28;20257;-82
2022/10/09 13:27:29;;;;;;;10.63;10.32;;;21.50;99.90;;;;;;5102216;28;20652;-82
2022/10/09 13:29:57;;;;;;;10.52;10.23;;;21.70;99.90;;;;;;5103541;28;20328;-81
2022/10/09 13:32:27;;;;;;;10.75;10.45;;;22.10;99.90;;;;;;5102742;28;20243;-83
2022/10/09 13:34:58;;;;;;;11.07;10.77;;;22.50;99.90;;;;;;5101715;28;20229;-83
2022/10/09 13:37:27;;;;;;;10.75;10.45;;;22.70;99.90;;;;;;5102133;28;20224;-83
2022/10/09 13:39:59;;;;;;;10.80;10.50;;;22.60;99.90;;;;;;5101929;28;20236;-81
2022/10/09 13:42:35;;;;;;;10.50;10.20;;;22.40;99.90;;;;;;5102314;28;20233;-81
2022/10/09 13:45:05;;;;;;;10.77;10.48;;;22.40;99.90;;;;;;5101169;28;20240;-81
2022/10/09 13:47:34;;;;;;;10.70;10.40;;;22.50;99.90;;;;;;5101338;28;20227;-80